Time;durP1;ratioP1;P1;durP2;ratioP2;P2;SDS_P1;SDS_P2;PMS_P1;PMS_P2;Temp;Humidity;BMP_temperature;BMP_pressure;BME280_temperature;BME280_humidity;BME280_pressure;Samples;Min_cycle;Max_cycle;Signal;HPM_P1;HPM_P2
2022/04/13 00:02:48;;;;;;;;;;;;;;;22.61;40.60;100823.41;20778472;27;97847;-81
2022/04/13 00:12:49;;;;;;;;;;;;;;;22.59;40.56;100829.75;20780764;27;97034;-80
2022/04/13 00:22:49;;;;;;;;;;;;;;;22.54;40.28;100841.53;20783562;27;97833;-80
2022/04/13 00:32:50;;;;;;;;;;;;;;;22.53;40.42;100839.84;20790345;27;97721;-80
2022/04/13 00:42:50;;;;;;;;;;;;;;;22.52;40.48;100834.66;20781327;27;97253;-80
2022/04/13 00:52:52;;;;;;;;;;;;;;;22.50;40.60;100837.41;20795460;27;96985;-79
2022/04/13 01:02:54;;;;;;;;;;;;;;;22.47;40.50;100850.00;20769734;27;96969;-80
2022/04/13 01:12:54;;;;;;;;;;;;;;;22.46;40.28;100850.94;20769266;27;96933;-81
2022/04/13 01:22:55;;;;;;;;;;;;;;;22.44;40.51;100852.88;20779997;27;97336;-80
2022/04/13 01:32:56;;;;;;;;;;;;;;;22.43;40.69;100846.75;20774932;27;101636;-80
2022/04/13 01:42:56;;;;;;;;;;;;;;;22.40;40.78;100868.09;20767541;27;97762;-81
2022/04/13 01:52:56;;;;;;;;;;;;;;;22.39;40.48;100866.41;20779021;27;97519;-80
2022/04/13 02:02:57;;;;;;;;;;;;;;;22.36;40.31;100878.00;20788931;27;97725;-81
2022/04/13 02:12:57;;;;;;;;;;;;;;;22.37;40.28;100878.84;20802458;27;98467;-80
2022/04/13 02:23:01;;;;;;;;;;;;;;;22.32;40.43;100892.38;20792599;27;97106;-80
2022/04/13 02:33:16;;;;;;;;;;;;;;;22.29;40.72;100887.34;20705706;27;96914;-80
2022/04/13 02:43:17;;;;;;;;;;;;;;;22.29;40.63;100876.78;20684724;27;97036;-80
2022/04/13 02:53:18;;;;;;;;;;;;;;;22.27;40.58;100877.84;20686517;27;98606;-80
2022/04/13 03:03:21;;;;;;;;;;;;;;;22.26;40.38;100886.72;20676589;27;101438;-80
2022/04/13 03:13:22;;;;;;;;;;;;;;;22.23;40.56;100890.44;20680476;28;97519;-80
2022/04/13 03:23:23;;;;;;;;;;;;;;;22.23;40.75;100893.91;20678289;28;98507;-80
2022/04/13 03:33:23;;;;;;;;;;;;;;;22.20;40.71;100902.06;20679414;28;96966;-80
2022/04/13 03:43:26;;;;;;;;;;;;;;;22.18;40.94;100911.00;20625251;28;97717;-80
2022/04/13 03:53:27;;;;;;;;;;;;;;;22.16;40.91;100923.50;20618146;28;97180;-80
2022/04/13 04:03:28;;;;;;;;;;;;;;;22.13;40.92;100931.63;20617175;28;97635;-80
2022/04/13 04:13:28;;;;;;;;;;;;;;;22.15;40.51;100935.81;20611848;28;100338;-80
2022/04/13 04:23:29;;;;;;;;;;;;;;;22.16;40.87;100937.50;20618974;27;97170;-80
2022/04/13 04:33:29;;;;;;;;;;;;;;;22.19;40.90;100944.34;20617899;28;96897;-80
2022/04/13 04:43:33;;;;;;;;;;;;;;;22.23;41.03;100956.38;20642582;27;98036;-80
2022/04/13 04:53:33;;;;;;;;;;;;;;;22.32;42.29;100960.97;20575078;27;97430;-78
2022/04/13 05:03:35;;;;;;;;;;;;;;;22.34;42.09;100966.16;20609706;27;97538;-80
2022/04/13 05:13:35;;;;;;;;;;;;;;;22.39;42.38;100974.59;20629630;27;98075;-81
2022/04/13 05:23:36;;;;;;;;;;;;;;;22.09;38.21;100989.00;20620455;27;97260;-80
2022/04/13 05:33:36;;;;;;;;;;;;;;;22.22;39.31;100989.81;20591316;27;97758;-79
2022/04/13 05:43:37;;;;;;;;;;;;;;;22.33;40.53;101004.03;20535027;28;97234;-79
2022/04/13 05:53:37;;;;;;;;;;;;;;;22.37;41.01;101006.34;20527214;28;96995;-78
2022/04/13 06:03:38;;;;;;;;;;;;;;;22.44;40.80;101021.75;20520727;28;97438;-78
2022/04/13 06:13:38;;;;;;;;;;;;;;;22.46;41.06;101027.75;20524881;28;97654;-79
2022/04/13 06:23:39;;;;;;;;;;;;;;;22.48;41.05;101033.78;20542295;28;97831;-79
2022/04/13 06:33:39;;;;;;;;;;;;;;;22.50;40.89;101042.44;20528533;28;98100;-79
2022/04/13 06:43:40;;;;;;;;;;;;;;;22.52;40.57;101048.41;20538168;28;97041;-80
2022/04/13 06:53:40;;;;;;;;;;;;;;;22.50;40.91;101048.53;20527083;28;97627;-80
2022/04/13 07:03:41;;;;;;;;;;;;;;;22.48;41.31;101045.16;20527598;28;97915;-80
2022/04/13 07:13:41;;;;;;;;;;;;;;;22.46;41.41;101040.94;20537789;28;97276;-80
2022/04/13 07:23:42;;;;;;;;;;;;;;;22.48;40.43;101053.06;20525786;28;97185;-79
2022/04/13 07:33:42;;;;;;;;;;;;;;;22.57;42.24;101063.91;20529813;28;97194;-77
2022/04/13 07:43:45;;;;;;;;;;;;;;;22.57;42.09;101056.88;20522314;28;98536;-77
2022/04/13 07:53:46;;;;;;;;;;;;;;;22.53;40.60;101058.88;20519886;28;96871;-77
2022/04/13 08:03:46;;;;;;;;;;;;;;;22.53;41.10;101064.16;20541274;28;97598;-77
2022/04/13 08:13:47;;;;;;;;;;;;;;;22.53;41.13;101058.88;20535620;28;97431;-76
2022/04/13 08:23:47;;;;;;;;;;;;;;;22.50;40.89;101061.72;20523240;28;97001;-78
2022/04/13 08:33:48;;;;;;;;;;;;;;;22.52;40.78;101064.25;20591369;28;96861;-77
2022/04/13 08:43:51;;;;;;;;;;;;;;;22.50;40.63;101059.09;20611922;27;97005;-76
2022/04/13 08:54:02;;;;;;;;;;;;;;;22.50;40.48;101059.09;20609215;27;96853;-78
2022/04/13 09:04:07;;;;;;;;;;;;;;;22.51;40.23;101059.94;20614923;28;97185;-77
2022/04/13 09:14:08;;;;;;;;;;;;;;;22.49;40.01;101054.75;20626858;27;97617;-76
2022/04/13 09:24:08;;;;;;;;;;;;;;;22.50;40.05;101050.34;20546824;28;97613;-77
2022/04/13 09:34:09;;;;;;;;;;;;;;;22.55;39.73;101042.94;20617088;28;96938;-76
2022/04/13 09:44:18;;;;;;;;;;;;;;;22.59;39.47;101033.00;20615520;27;96709;-77
2022/04/13 09:54:22;;;;;;;;;;;;;;;22.62;40.26;101027.47;20603161;28;97156;-77
2022/04/13 10:04:26;;;;;;;;;;;;;;;22.65;40.37;101024.63;20598906;27;96925;-78
2022/04/13 10:14:27;;;;;;;;;;;;;;;22.68;40.38;101012.03;20606008;28;97381;-76
2022/04/13 10:24:28;;;;;;;;;;;;;;;22.74;40.14;101010.75;20609092;27;96959;-78
2022/04/13 10:34:30;;;;;;;;;;;;;;;22.78;40.16;100998.16;20609239;27;97285;-77
2022/04/13 10:44:34;;;;;;;;;;;;;;;22.83;39.77;100986.28;20592076;27;97672;-77
2022/04/13 10:54:36;;;;;;;;;;;;;;;22.91;39.64;100982.22;20626270;27;98503;-77
2022/04/13 11:04:38;;;;;;;;;;;;;;;22.97;39.65;100966.78;20618805;27;97580;-77
2022/04/13 11:15:05;;;;;;;;;;;;;;;23.03;39.48;100955.75;20621784;27;102784;-77
2022/04/13 11:25:06;;;;;;;;;;;;;;;23.12;39.67;100953.31;20616969;27;97338;-78
2022/04/13 11:35:06;;;;;;;;;;;;;;;23.20;39.47;100932.47;20606932;28;97061;-77
2022/04/13 11:45:14;;;;;;;;;;;;;;;23.27;39.71;100925.75;20603517;27;97097;-77
2022/04/13 11:55:23;;;;;;;;;;;;;;;23.36;39.49;100920.72;20525367;28;97888;-76
2022/04/13 12:05:23;;;;;;;;;;;;;;;23.43;39.51;100909.53;20532317;28;96842;-77
2022/04/13 12:15:24;;;;;;;;;;;;;;;23.52;39.61;100900.03;20533234;28;97357;-77
2022/04/13 12:25:24;;;;;;;;;;;;;;;23.60;39.52;100887.06;20602368;28;97345;-77
2022/04/13 12:35:25;;;;;;;;;;;;;;;23.69;39.39;100871.44;20612773;28;96978;-77
2022/04/13 12:45:29;;;;;;;;;;;;;;;23.77;39.40;100869.84;20620138;28;97085;-77
2022/04/13 12:55:32;;;;;;;;;;;;;;;23.86;38.94;100854.19;20612012;28;97324;-76
2022/04/13 13:05:33;;;;;;;;;;;;;;;23.93;39.03;100843.00;20612540;27;97334;-76
2022/04/13 13:15:37;;;;;;;;;;;;;;;24.02;38.75;100819.41;20535369;28;96882;-76
2022/04/13 13:25:42;;;;;;;;;;;;;;;24.10;38.92;100822.28;20524579;27;100791;-77
2022/04/13 13:35:43;;;;;;;;;;;;;;;24.17;38.63;100807.56;20533665;28;97472;-76
2022/04/13 13:45:49;;;;;;;;;;;;;;;24.25;38.60;100793.69;20520303;27;96866;-77
2022/04/13 13:55:50;;;;;;;;;;;;;;;24.32;38.39;100789.56;20530231;27;97269;-77
2022/04/13 14:05:51;;;;;;;;;;;;;;;24.36;38.37;100780.38;20526222;27;96857;-77
2022/04/13 14:15:51;;;;;;;;;;;;;;;24.45;38.19;100770.84;20516157;27;96907;-78
2022/04/13 14:25:54;;;;;;;;;;;;;;;24.56;38.25;100765.44;20511504;28;97335;-78
2022/04/13 14:35:54;;;;;;;;;;;;;;;24.69;37.85;100761.75;20524071;28;97434;-78
2022/04/13 14:45:57;;;;;;;;;;;;;;;24.85;37.56;100758.63;20515082;27;96835;-77
2022/04/13 14:55:58;;;;;;;;;;;;;;;25.07;37.02;100757.56;20521602;28;97100;-76
2022/04/13 15:05:59;;;;;;;;;;;;;;;25.48;36.24;100762.84;20512774;27;97099;-78
2022/04/13 15:16:00;;;;;;;;;;;;;;;25.69;35.60;100765.34;20515962;27;97828;-77
2022/04/13 15:26:01;;;;;;;;;;;;;;;25.97;35.42;100768.97;20510991;28;97008;-78
2022/04/13 15:36:01;;;;;;;;;;;;;;;26.15;34.95;100753.19;20516312;28;97143;-77
2022/04/13 15:46:02;;;;;;;;;;;;;;;26.28;34.70;100733.47;20525686;28;97068;-77
2022/04/13 15:56:04;;;;;;;;;;;;;;;26.13;34.37;100725.94;20529570;28;97406;-76
2022/04/13 16:06:04;;;;;;;;;;;;;;;25.91;34.51;100740.34;20520162;28;97239;-77
2022/04/13 16:16:05;;;;;;;;;;;;;;;25.87;34.54;100745.09;20524111;28;98436;-77
2022/04/13 16:26:06;;;;;;;;;;;;;;;25.66;34.75;100763.81;20526110;28;96791;-77
2022/04/13 16:36:06;;;;;;;;;;;;;;;25.25;35.55;100763.91;20523961;28;96947;-77
2022/04/13 16:46:07;;;;;;;;;;;;;;;25.05;36.60;100770.97;20489705;27;99169;-78
2022/04/13 16:56:07;;;;;;;;;;;;;;;24.86;37.02;100779.66;20524381;27;97955;-79
2022/04/13 17:06:07;;;;;;;;;;;;;;;24.68;37.31;100771.53;20533431;27;97352;-81
2022/04/13 17:16:08;;;;;;;;;;;;;;;24.66;36.94;100783.19;20541775;28;96955;-81
2022/04/13 17:26:08;;;;;;;;;;;;;;;24.69;38.20;100777.66;20537261;28;97100;-81
2022/04/13 17:36:09;;;;;;;;;;;;;;;24.74;39.16;100784.25;20531770;27;96993;-81
2022/04/13 17:46:10;;;;;;;;;;;;;;;24.77;39.64;100791.91;20536946;27;97401;-80
2022/04/13 17:56:10;;;;;;;;;;;;;;;24.75;41.46;100779.78;20539440;28;97341;-79
2022/04/13 18:06:11;;;;;;;;;;;;;;;24.73;41.68;100781.69;20527345;28;97340;-80
2022/04/13 18:16:11;;;;;;;;;;;;;;;24.76;41.12;100786.75;20542013;28;97313;-80
2022/04/13 18:26:12;;;;;;;;;;;;;;;24.74;41.55;100804.56;20595711;28;96858;-80
2022/04/13 18:36:15;;;;;;;;;;;;;;;24.73;42.27;100819.63;20612879;28;97185;-79
2022/04/13 18:46:16;;;;;;;;;;;;;;;24.76;42.42;100829.94;20609863;27;96999;-79
2022/04/13 18:56:17;;;;;;;;;;;;;;;24.72;42.90;100844.44;20614141;28;96968;-78
2022/04/13 19:06:17;;;;;;;;;;;;;;;24.69;43.20;100857.09;20604868;28;97046;-79
2022/04/13 19:16:18;;;;;;;;;;;;;;;24.65;43.38;100859.13;20618587;27;99445;-79
2022/04/13 19:26:18;;;;;;;;;;;;;;;24.65;42.70;100860.94;20624400;28;100945;-79
2022/04/13 19:36:19;;;;;;;;;;;;;;;24.60;42.96;100854.22;20623118;28;97367;-79
2022/04/13 19:46:20;;;;;;;;;;;;;;;24.59;42.69;100859.66;20598469;27;101280;-80
2022/04/13 19:56:21;;;;;;;;;;;;;;;24.55;42.36;100859.06;20610192;28;98428;-79
2022/04/13 20:06:21;;;;;;;;;;;;;;;24.46;42.54;100863.34;20614407;28;98291;-79
2022/04/13 20:16:23;;;;;;;;;;;;;;;24.30;42.12;100866.44;20615083;28;97237;-80
2022/04/13 20:26:24;;;;;;;;;;;;;;;24.23;42.19;100885.56;20610799;28;97467;-79
2022/04/13 20:36:24;;;;;;;;;;;;;;;24.12;42.48;100887.31;20586501;28;96916;-79
2022/04/13 20:46:25;;;;;;;;;;;;;;;24.02;42.78;100888.19;20518769;27;97782;-79
2022/04/13 20:56:25;;;;;;;;;;;;;;;23.94;43.06;100892.31;20519233;27;96992;-80
2022/04/13 21:06:29;;;;;;;;;;;;;;;23.88;43.30;100884.84;20525247;27;97527;-79
2022/04/13 21:16:30;;;;;;;;;;;;;;;23.80;43.34;100889.91;20505249;27;98822;-80
2022/04/13 21:26:30;;;;;;;;;;;;;;;23.77;43.53;100887.53;20517425;27;97692;-79
2022/04/13 21:36:31;;;;;;;;;;;;;;;23.70;43.50;100886.34;20503352;27;97718;-79
2022/04/13 21:46:31;;;;;;;;;;;;;;;23.63;43.29;100889.47;20494558;28;97518;-79
2022/04/13 21:56:32;;;;;;;;;;;;;;;23.60;43.52;100886.22;20505160;28;97590;-79
2022/04/13 22:06:33;;;;;;;;;;;;;;;23.58;43.41;100898.72;20510600;28;100887;-79
2022/04/13 22:16:34;;;;;;;;;;;;;;;23.53;43.40;100912.28;20504933;27;97097;-79
2022/04/13 22:26:34;;;;;;;;;;;;;;;23.50;43.14;100909.91;20507612;27;97052;-79
2022/04/13 22:36:36;;;;;;;;;;;;;;;23.47;43.27;100910.13;20506901;28;97058;-78
2022/04/13 22:46:37;;;;;;;;;;;;;;;23.43;43.13;100906.06;20515856;28;97449;-78
2022/04/13 22:56:37;;;;;;;;;;;;;;;23.40;43.12;100896.59;20519307;28;96940;-78
2022/04/13 23:06:38;;;;;;;;;;;;;;;23.37;42.98;100912.66;20538107;28;97624;-79
2022/04/13 23:16:39;;;;;;;;;;;;;;;23.34;43.17;100902.34;20598044;27;97947;-79
2022/04/13 23:26:40;;;;;;;;;;;;;;;23.31;42.93;100902.59;20529899;28;97630;-79
2022/04/13 23:36:41;;;;;;;;;;;;;;;23.28;42.82;100889.63;20526944;28;97701;-79
2022/04/13 23:46:41;;;;;;;;;;;;;;;23.25;42.96;100889.84;20518304;27;96994;-79
2022/04/13 23:56:43;;;;;;;;;;;;;;;23.22;42.97;100875.09;20523505;27;97218;-79
